createdAt,value
2018-03-29T00:01:08.349Z,6.01
2018-03-29T00:03:36.702Z,5.86
2018-03-29T00:06:05.338Z,5.86
2018-03-29T00:08:33.648Z,5.84
2018-03-29T00:11:01.938Z,5.90
2018-03-29T00:13:30.347Z,5.96
2018-03-29T00:16:00.106Z,5.75
2018-03-29T00:18:29.367Z,5.95
2018-03-29T00:20:57.749Z,5.74
2018-03-29T00:23:25.999Z,5.74
2018-03-29T00:25:55.115Z,5.70
2018-03-29T00:28:23.645Z,5.85
2018-03-29T00:30:52.023Z,5.83
2018-03-29T00:33:20.348Z,5.87
2018-03-29T00:35:48.661Z,5.88
2018-03-29T00:38:16.921Z,5.97
2018-03-29T00:40:45.535Z,5.90
2018-03-29T00:43:13.844Z,6.03
2018-03-29T00:45:43.077Z,5.89
2018-03-29T00:48:12.503Z,6.02
2018-03-29T00:50:40.747Z,6.19
2018-03-29T00:53:26.887Z,5.96
2018-03-29T00:55:55.566Z,5.81
2018-03-29T00:58:23.958Z,5.80
2018-03-29T01:00:52.226Z,5.87
2018-03-29T01:03:20.483Z,5.77
2018-03-29T01:05:49.888Z,5.87
2018-03-29T01:08:18.685Z,5.85
2018-03-29T01:10:47.179Z,5.87
2018-03-29T01:13:15.545Z,5.82
2018-03-29T01:15:43.838Z,5.91
2018-03-29T01:18:12.343Z,5.90
2018-03-29T01:20:41.374Z,5.86
2018-03-29T01:23:09.817Z,5.92
2018-03-29T01:25:38.426Z,6.11
2018-03-29T01:28:06.956Z,5.95
2018-03-29T01:30:35.249Z,5.84
2018-03-29T01:33:04.336Z,5.92
2018-03-29T01:35:32.653Z,5.89
2018-03-29T01:38:01.214Z,6.06
2018-03-29T01:40:29.743Z,5.77
2018-03-29T01:42:58.025Z,5.72
2018-03-29T01:45:26.378Z,5.81
2018-03-29T01:47:54.728Z,5.92
2018-03-29T01:50:23.023Z,5.87
2018-03-29T01:52:51.342Z,5.78
2018-03-29T01:55:19.618Z,5.93
2018-03-29T01:57:47.959Z,6.01
2018-03-29T02:00:16.304Z,5.89
2018-03-29T02:02:44.725Z,6.01
2018-03-29T02:05:13.504Z,6.04
2018-03-29T02:07:41.885Z,6.05
2018-03-29T02:10:10.932Z,6.01
2018-03-29T02:12:40.008Z,5.74
2018-03-29T02:15:09.075Z,5.82
2018-03-29T02:17:37.416Z,5.99
2018-03-29T02:20:05.874Z,5.88
2018-03-29T02:22:34.134Z,6.07
2018-03-29T02:25:02.469Z,6.14
2018-03-29T02:27:30.773Z,6.16
2018-03-29T02:29:59.205Z,6.03
2018-03-29T02:32:28.399Z,5.90
2018-03-29T02:34:57.656Z,5.92
2018-03-29T02:37:25.926Z,6.14
2018-03-29T02:39:54.283Z,5.81
2018-03-29T02:42:22.783Z,5.69
2018-03-29T02:44:51.163Z,5.76
2018-03-29T02:47:19.454Z,5.64
2018-03-29T02:49:47.710Z,5.81
2018-03-29T02:52:16.104Z,5.95
2018-03-29T02:54:44.372Z,5.94
2018-03-29T02:57:12.794Z,5.93
2018-03-29T02:59:41.455Z,5.97
2018-03-29T03:02:09.900Z,6.06
2018-03-29T03:04:39.974Z,6.09
2018-03-29T03:07:10.275Z,5.91
2018-03-29T03:09:38.572Z,5.87
2018-03-29T03:12:07.598Z,5.84
2018-03-29T03:14:35.955Z,6.05
2018-03-29T03:17:04.286Z,5.79
2018-03-29T03:19:32.918Z,6.09
2018-03-29T03:22:01.492Z,5.95
2018-03-29T03:24:30.659Z,5.84
2018-03-29T03:26:59.048Z,6.17
2018-03-29T03:29:27.404Z,6.02
2018-03-29T03:31:55.703Z,6.23
2018-03-29T03:34:23.983Z,6.46
2018-03-29T03:36:53.084Z,6.43
2018-03-29T03:39:22.124Z,6.59
2018-03-29T03:41:50.418Z,6.70
2018-03-29T03:44:18.897Z,6.50
2018-03-29T03:46:47.193Z,6.64
2018-03-29T03:49:15.554Z,6.61
2018-03-29T03:51:43.970Z,6.51
2018-03-29T03:54:13.114Z,6.62
2018-03-29T03:56:41.479Z,6.65
2018-03-29T03:59:09.959Z,6.75
2018-03-29T04:01:38.407Z,6.75
2018-03-29T04:04:07.460Z,6.89
2018-03-29T04:06:35.982Z,6.83
2018-03-29T04:09:05.268Z,6.84
2018-03-29T04:11:33.595Z,6.78
2018-03-29T04:14:02.340Z,6.76
2018-03-29T04:16:30.627Z,6.74
2018-03-29T04:18:58.922Z,6.68
2018-03-29T04:21:27.252Z,6.68
2018-03-29T04:23:55.635Z,6.67
2018-03-29T04:26:23.925Z,6.65
2018-03-29T04:28:52.993Z,6.83
2018-03-29T04:31:21.245Z,6.86
2018-03-29T04:33:49.513Z,6.89
2018-03-29T04:36:17.822Z,6.90
2018-03-29T04:38:46.097Z,6.95
2018-03-29T04:41:14.418Z,6.95
2018-03-29T04:43:42.738Z,6.91
2018-03-29T04:46:11.160Z,6.93
2018-03-29T04:48:40.245Z,6.94
2018-03-29T04:51:09.339Z,6.92
2018-03-29T04:53:37.637Z,6.94
2018-03-29T04:56:05.952Z,6.96
2018-03-29T04:58:34.250Z,6.96
2018-03-29T05:01:03.282Z,6.99
2018-03-29T05:03:32.353Z,6.97
2018-03-29T05:06:01.358Z,7.03
2018-03-29T05:08:29.804Z,7.05
2018-03-29T05:10:58.088Z,6.99
2018-03-29T05:13:26.368Z,6.94
2018-03-29T05:15:54.647Z,6.87
2018-03-29T05:18:22.978Z,6.82
2018-03-29T05:20:51.239Z,6.83
2018-03-29T05:23:19.619Z,6.74
2018-03-29T05:25:47.988Z,6.61
2018-03-29T05:28:17.032Z,6.61
2018-03-29T05:30:45.531Z,6.60
2018-03-29T05:33:14.002Z,6.58
2018-03-29T05:35:42.308Z,6.72
2018-03-29T05:38:12.628Z,6.71
2018-03-29T05:40:41.850Z,6.69
2018-03-29T05:43:10.130Z,6.76
2018-03-29T05:45:38.448Z,6.76
2018-03-29T05:48:06.776Z,10.30
2018-03-29T05:50:35.050Z,12.02
2018-03-29T05:53:03.374Z,12.81
2018-03-29T05:55:31.794Z,14.07
2018-03-29T05:58:01.088Z,14.90
2018-03-29T06:00:30.294Z,13.91
2018-03-29T06:02:59.407Z,12.19
2018-03-29T06:05:29.074Z,11.18
2018-03-29T06:07:58.500Z,10.32
2018-03-29T06:10:28.719Z,9.73
2018-03-29T06:12:58.898Z,9.27
2018-03-29T06:15:33.469Z,8.87
2018-03-29T06:18:02.698Z,8.52
2018-03-29T06:20:31.203Z,8.34
2018-03-29T06:23:00.349Z,8.19
2018-03-29T06:25:28.743Z,8.03
2018-03-29T06:27:57.254Z,8.01
2018-03-29T06:30:25.639Z,7.90
2018-03-29T06:32:53.899Z,7.93
2018-03-29T06:35:22.280Z,7.84
2018-03-29T06:37:50.889Z,7.82
2018-03-29T06:40:19.303Z,7.85
2018-03-29T06:42:47.699Z,7.88
2018-03-29T06:45:16.424Z,7.82
2018-03-29T06:47:45.539Z,7.84
2018-03-29T06:50:13.991Z,7.84
2018-03-29T06:52:42.450Z,7.75
2018-03-29T06:55:10.790Z,7.77
2018-03-29T06:57:40.004Z,7.76
2018-03-29T07:00:08.521Z,7.85
2018-03-29T07:02:37.371Z,7.80
2018-03-29T07:05:06.674Z,7.84
2018-03-29T07:07:35.001Z,7.86
2018-03-29T07:10:03.531Z,7.79
2018-03-29T07:12:32.038Z,7.37
2018-03-29T07:15:00.510Z,7.57
2018-03-29T07:17:28.847Z,7.57
2018-03-29T07:19:57.944Z,7.61
2018-03-29T07:22:26.324Z,7.59
2018-03-29T07:24:54.619Z,7.70
2018-03-29T07:27:23.818Z,7.79
2018-03-29T07:29:53.576Z,7.81
2018-03-29T07:32:22.345Z,7.86
2018-03-29T07:34:50.915Z,7.80
2018-03-29T07:37:19.534Z,7.83
2018-03-29T07:39:47.851Z,7.87
2018-03-29T07:42:17.040Z,7.84
2018-03-29T07:44:46.270Z,7.89
2018-03-29T07:47:14.531Z,7.78
2018-03-29T07:49:43.775Z,7.81
2018-03-29T07:52:12.141Z,7.86
2018-03-29T07:54:40.492Z,7.70
2018-03-29T07:57:08.888Z,7.67
2018-03-29T07:59:37.200Z,7.81
2018-03-29T08:02:06.402Z,7.82
2018-03-29T08:04:37.312Z,7.87
2018-03-29T08:07:05.738Z,7.82
2018-03-29T08:09:34.806Z,7.81
2018-03-29T08:12:03.122Z,7.74
2018-03-29T08:14:32.155Z,7.65
2018-03-29T08:17:00.504Z,7.69
2018-03-29T08:19:28.810Z,7.61
2018-03-29T08:21:57.257Z,7.30
2018-03-29T08:24:25.571Z,7.51
2018-03-29T08:26:54.076Z,7.50
2018-03-29T08:29:22.486Z,7.52
2018-03-29T08:31:51.585Z,7.45
2018-03-29T08:34:19.901Z,7.43
2018-03-29T08:36:48.297Z,7.34
2018-03-29T08:39:16.756Z,7.40
2018-03-29T08:41:45.195Z,7.43
2018-03-29T08:44:13.714Z,7.40
2018-03-29T08:46:42.055Z,7.31
2018-03-29T08:49:11.275Z,7.21
2018-03-29T08:51:39.612Z,7.22
2018-03-29T08:54:08.009Z,7.21
2018-03-29T08:56:36.420Z,7.22
2018-03-29T08:59:04.895Z,7.30
2018-03-29T09:01:33.605Z,7.37
2018-03-29T09:04:01.890Z,7.31
2018-03-29T09:06:30.194Z,7.32
2018-03-29T09:08:59.275Z,7.38
2018-03-29T09:11:27.559Z,7.44
2018-03-29T09:13:56.727Z,7.45
2018-03-29T09:16:25.160Z,7.46
2018-03-29T09:18:53.466Z,7.61
2018-03-29T09:21:21.803Z,7.61
2018-03-29T09:23:50.986Z,7.37
2018-03-29T09:26:19.366Z,7.45
2018-03-29T09:28:47.708Z,7.49
2018-03-29T09:31:16.057Z,7.49
2018-03-29T09:33:44.417Z,7.65
2018-03-29T09:36:12.852Z,7.60
2018-03-29T09:38:41.131Z,7.56
2018-03-29T09:41:09.491Z,7.51
2018-03-29T09:43:37.820Z,7.57
2018-03-29T09:46:06.912Z,7.55
2018-03-29T09:48:36.100Z,7.67
2018-03-29T09:51:04.495Z,7.66
2018-03-29T09:53:33.687Z,7.66
2018-03-29T09:56:02.794Z,7.84
2018-03-29T09:58:32.014Z,7.82
2018-03-29T10:01:05.949Z,7.83
2018-03-29T10:03:45.045Z,7.94
2018-03-29T10:06:33.283Z,8.00
2018-03-29T10:09:01.653Z,8.07
2018-03-29T10:11:30.105Z,8.18
2018-03-29T10:14:00.390Z,8.25
2018-03-29T10:16:28.717Z,8.33
2018-03-29T10:18:57.878Z,8.23
2018-03-29T10:21:26.329Z,7.89
2018-03-29T10:23:54.647Z,7.94
2018-03-29T10:26:22.980Z,7.94
2018-03-29T10:28:51.330Z,7.99
2018-03-29T10:31:20.403Z,8.27
2018-03-29T10:33:49.530Z,8.37
2018-03-29T10:38:52.665Z,8.06
2018-03-29T10:41:20.981Z,8.27
2018-03-29T10:43:49.433Z,8.06
2018-03-29T10:46:17.801Z,8.38
2018-03-29T10:48:46.166Z,8.58
2018-03-29T10:51:16.078Z,8.51
2018-03-29T10:53:44.758Z,8.71
2018-03-29T10:56:14.079Z,8.83
2018-03-29T10:58:42.655Z,8.65
2018-03-29T11:01:11.316Z,8.90
2018-03-29T11:03:40.107Z,9.14
2018-03-29T11:06:08.504Z,9.25
2018-03-29T11:08:36.895Z,9.37
2018-03-29T11:11:05.231Z,9.52
2018-03-29T11:13:34.463Z,9.90
2018-03-29T11:16:02.835Z,9.76
2018-03-29T11:18:31.435Z,9.81
2018-03-29T11:20:59.761Z,9.69
2018-03-29T11:23:29.185Z,10.08
2018-03-29T11:25:57.770Z,10.36
2018-03-29T11:28:26.332Z,10.56
2018-03-29T11:30:55.661Z,10.36
2018-03-29T11:33:24.018Z,10.32
2018-03-29T11:35:52.625Z,10.76
2018-03-29T11:38:20.926Z,11.11
2018-03-29T11:40:49.390Z,10.63
2018-03-29T11:43:17.890Z,11.05
2018-03-29T11:45:46.248Z,11.30
2018-03-29T11:48:14.565Z,11.31
2018-03-29T11:50:42.980Z,10.89
2018-03-29T11:53:11.285Z,10.77
2018-03-29T11:55:39.591Z,11.17
2018-03-29T11:58:08.132Z,11.39
2018-03-29T12:00:36.478Z,11.59
2018-03-29T12:03:05.746Z,11.74
2018-03-29T12:05:34.048Z,11.33
2018-03-29T12:08:03.200Z,11.36
2018-03-29T12:10:31.552Z,11.74
2018-03-29T12:12:59.942Z,11.83
2018-03-29T12:15:28.327Z,11.36
2018-03-29T12:17:56.824Z,11.16
2018-03-29T12:20:25.192Z,11.19
2018-03-29T12:22:53.526Z,10.81
2018-03-29T12:25:23.765Z,10.45
2018-03-29T12:27:52.246Z,10.66
2018-03-29T12:30:20.645Z,10.68
2018-03-29T12:32:49.197Z,10.73
2018-03-29T12:35:17.545Z,10.69
2018-03-29T12:37:46.663Z,10.68
2018-03-29T12:40:15.786Z,10.77
2018-03-29T12:42:44.482Z,10.97
2018-03-29T12:45:12.935Z,11.52
2018-03-29T12:47:41.246Z,11.97
2018-03-29T12:50:09.595Z,12.31
2018-03-29T12:52:38.236Z,12.47
2018-03-29T12:55:24.066Z,12.58
2018-03-29T12:58:07.161Z,12.47
2018-03-29T13:00:35.472Z,12.15
2018-03-29T13:03:03.891Z,11.86
2018-03-29T13:05:32.419Z,11.28
2018-03-29T13:08:00.971Z,10.72
2018-03-29T13:10:30.073Z,9.70
2018-03-29T13:12:59.386Z,9.58
2018-03-29T13:15:28.636Z,9.32
2018-03-29T13:17:56.967Z,8.85
2018-03-29T13:20:26.074Z,8.77
2018-03-29T13:22:54.409Z,8.54
2018-03-29T13:25:23.578Z,8.24
2018-03-29T13:27:52.080Z,8.00
2018-03-29T13:30:20.515Z,8.00
2018-03-29T13:32:48.797Z,7.97
2018-03-29T13:35:17.150Z,7.93
2018-03-29T13:37:45.649Z,7.81
2018-03-29T13:40:13.979Z,7.50
2018-03-29T13:42:42.367Z,7.09
2018-03-29T13:45:10.750Z,7.17
2018-03-29T13:47:39.826Z,7.41
2018-03-29T13:50:08.150Z,7.77
2018-03-29T13:52:36.451Z,8.08
2018-03-29T13:55:04.745Z,8.70
2018-03-29T13:57:33.211Z,9.09
2018-03-29T14:00:02.002Z,9.63
2018-03-29T14:02:30.366Z,10.01
2018-03-29T14:04:58.739Z,10.68
2018-03-29T14:07:27.229Z,11.41
2018-03-29T14:09:55.544Z,11.74
2018-03-29T14:12:24.104Z,11.91
2018-03-29T14:14:52.493Z,12.36
2018-03-29T14:17:20.850Z,12.81
2018-03-29T14:19:49.192Z,13.09
2018-03-29T14:22:17.644Z,13.18
2018-03-29T14:24:45.977Z,13.15
2018-03-29T14:27:14.408Z,13.14
2018-03-29T14:29:44.661Z,12.43
2018-03-29T14:32:13.324Z,11.71
2018-03-29T14:34:41.836Z,11.18
2018-03-29T14:37:10.408Z,10.93
2018-03-29T14:39:38.724Z,10.76
2018-03-29T14:42:08.125Z,10.66
2018-03-29T14:44:36.757Z,10.42
2018-03-29T14:47:06.132Z,9.98
2018-03-29T14:49:35.663Z,9.72
2018-03-29T14:52:04.012Z,9.09
2018-03-29T14:54:32.353Z,8.96
2018-03-29T14:57:00.966Z,8.99
2018-03-29T14:59:29.308Z,8.89
2018-03-29T15:01:58.117Z,8.94
2018-03-29T15:04:26.413Z,8.93
2018-03-29T15:06:54.860Z,8.97
2018-03-29T15:09:23.605Z,9.16
2018-03-29T15:11:52.777Z,9.84
2018-03-29T15:14:21.233Z,10.28
2018-03-29T15:16:49.639Z,10.24
2018-03-29T15:19:18.049Z,10.19
2018-03-29T15:21:46.659Z,10.33
2018-03-29T15:24:14.943Z,10.75
2018-03-29T15:26:43.276Z,11.51
2018-03-29T15:29:12.473Z,13.40
2018-03-29T15:31:41.612Z,15.48
2018-03-29T15:34:11.846Z,15.82
2018-03-29T15:36:40.598Z,15.19
2018-03-29T15:39:09.065Z,15.38
2018-03-29T15:41:38.192Z,16.18
2018-03-29T15:44:06.708Z,16.74
2018-03-29T15:46:35.102Z,16.74
2018-03-29T15:49:03.431Z,15.93
2018-03-29T15:51:31.792Z,14.81
2018-03-29T15:54:00.211Z,13.73
2018-03-29T15:56:28.670Z,12.73
2018-03-29T15:58:57.276Z,12.09
2018-03-29T16:01:25.647Z,11.68
2018-03-29T16:03:53.990Z,11.45
2018-03-29T16:06:22.325Z,11.33
2018-03-29T16:08:50.759Z,11.34
2018-03-29T16:11:20.218Z,11.52
2018-03-29T16:13:49.442Z,12.13
2018-03-29T16:16:18.054Z,12.80
2018-03-29T16:18:46.449Z,14.27
2018-03-29T16:21:14.974Z,14.84
2018-03-29T16:23:44.575Z,14.66
2018-03-29T16:26:14.185Z,14.58
2018-03-29T16:28:43.291Z,14.59
2018-03-29T16:31:11.614Z,14.07
2018-03-29T16:33:40.142Z,13.37
2018-03-29T16:36:09.775Z,12.75
2018-03-29T16:38:38.151Z,12.38
2018-03-29T16:41:06.524Z,12.13
2018-03-29T16:43:34.945Z,12.06
2018-03-29T16:46:04.284Z,12.06
2018-03-29T16:48:33.491Z,12.03
2018-03-29T16:51:02.841Z,11.94
2018-03-29T16:53:31.285Z,11.77
2018-03-29T16:55:59.776Z,11.58
2018-03-29T16:58:28.433Z,11.45
2018-03-29T17:00:57.985Z,11.34
2018-03-29T17:03:27.488Z,11.20
2018-03-29T17:05:56.174Z,11.10
2018-03-29T17:08:26.328Z,11.04
2018-03-29T17:10:55.115Z,10.98
2018-03-29T17:13:24.274Z,10.99
2018-03-29T17:15:52.965Z,10.92
2018-03-29T17:18:21.461Z,10.89
2018-03-29T17:20:50.354Z,10.70
2018-03-29T17:23:18.917Z,10.50
2018-03-29T17:25:47.418Z,10.46
2018-03-29T17:28:16.571Z,10.47
2018-03-29T17:30:45.166Z,10.52
2018-03-29T17:33:13.478Z,10.51
2018-03-29T17:35:41.900Z,10.50
2018-03-29T17:38:10.240Z,10.43
2018-03-29T17:40:39.404Z,10.40
2018-03-29T17:43:07.802Z,10.39
2018-03-29T17:45:36.147Z,10.35
2018-03-29T17:48:04.589Z,10.30
2018-03-29T17:50:33.859Z,10.26
2018-03-29T17:53:02.304Z,10.22
2018-03-29T17:55:30.693Z,10.19
2018-03-29T17:57:59.113Z,10.15
2018-03-29T18:00:27.678Z,12.96
2018-03-29T18:02:57.785Z,15.41
2018-03-29T18:05:26.230Z,15.24
2018-03-29T18:07:54.707Z,14.55
2018-03-29T18:10:23.094Z,13.79
2018-03-29T18:12:51.679Z,13.10
2018-03-29T18:15:20.270Z,12.51
2018-03-29T18:17:48.717Z,12.00
2018-03-29T18:20:17.274Z,11.63
2018-03-29T18:22:46.519Z,11.24
2018-03-29T18:25:14.914Z,10.92
2018-03-29T18:27:43.286Z,10.73
2018-03-29T18:30:12.013Z,10.56
2018-03-29T18:32:41.242Z,10.40
2018-03-29T18:35:09.760Z,10.26
2018-03-29T18:37:38.163Z,10.17
2018-03-29T18:40:06.553Z,10.10
2018-03-29T18:42:35.754Z,10.02
2018-03-29T18:45:05.082Z,9.94
2018-03-29T18:47:33.584Z,9.82
2018-03-29T18:50:01.969Z,9.80
2018-03-29T18:52:30.477Z,9.73
2018-03-29T18:54:58.861Z,9.70
2018-03-29T18:57:28.206Z,9.64
2018-03-29T18:59:56.622Z,9.64
2018-03-29T19:02:26.296Z,9.60
2018-03-29T19:04:54.849Z,9.56
2018-03-29T19:07:23.217Z,9.55
2018-03-29T19:09:51.734Z,9.52
2018-03-29T19:12:20.296Z,9.52
2018-03-29T19:14:48.642Z,9.51
2018-03-29T19:17:17.902Z,9.47
2018-03-29T19:19:46.272Z,9.41
2018-03-29T19:22:14.721Z,9.40
2018-03-29T19:24:43.284Z,9.38
2018-03-29T19:27:12.948Z,9.38
2018-03-29T19:29:41.282Z,9.30
2018-03-29T19:32:09.758Z,9.26
2018-03-29T19:34:38.454Z,9.20
2018-03-29T19:37:06.823Z,9.24
2018-03-29T19:39:35.329Z,9.18
2018-03-29T19:42:03.698Z,9.18
2018-03-29T19:44:32.329Z,9.06
2018-03-29T19:47:00.677Z,9.10
2018-03-29T19:49:29.032Z,9.04
2018-03-29T19:51:57.409Z,9.02
2018-03-29T19:54:25.993Z,8.99
2018-03-29T19:56:54.386Z,8.98
2018-03-29T19:59:22.837Z,9.00
2018-03-29T20:01:51.220Z,8.97
2018-03-29T20:04:19.564Z,8.94
2018-03-29T20:06:48.117Z,8.91
2018-03-29T20:09:16.653Z,8.86
2018-03-29T20:11:45.201Z,8.77
2018-03-29T20:14:13.662Z,8.73
2018-03-29T20:16:42.071Z,8.72
2018-03-29T20:19:10.410Z,8.68
2018-03-29T20:21:38.910Z,8.62
2018-03-29T20:24:07.357Z,8.61
2018-03-29T20:26:37.146Z,8.58
2018-03-29T20:29:05.748Z,8.50
2018-03-29T20:31:34.122Z,8.46
2018-03-29T20:34:02.492Z,8.45
2018-03-29T20:36:31.044Z,8.47
2018-03-29T20:38:59.493Z,8.45
2018-03-29T20:41:27.957Z,8.42
2018-03-29T20:43:56.474Z,8.37
2018-03-29T20:46:24.958Z,8.34
2018-03-29T20:48:53.459Z,8.32
2018-03-29T20:51:22.840Z,8.30
2018-03-29T20:53:51.398Z,8.32
2018-03-29T20:56:19.912Z,8.30
2018-03-29T20:58:48.475Z,8.27
2018-03-29T21:01:18.471Z,8.26
2018-03-29T21:03:46.969Z,8.23
2018-03-29T21:06:15.541Z,8.16
2018-03-29T21:08:43.970Z,8.13
2018-03-29T21:11:13.154Z,7.98
2018-03-29T21:13:42.385Z,8.07
2018-03-29T21:16:10.954Z,7.97
2018-03-29T21:18:39.472Z,7.98
2018-03-29T21:21:07.952Z,8.00
2018-03-29T21:23:36.415Z,7.97
2018-03-29T21:26:04.788Z,7.92
2018-03-29T21:28:33.253Z,7.97
2018-03-29T21:31:02.682Z,7.98
2018-03-29T21:33:31.142Z,7.95
2018-03-29T21:35:59.642Z,7.94
2018-03-29T21:38:28.268Z,7.87
2018-03-29T21:40:56.628Z,7.85
2018-03-29T21:43:25.001Z,7.88
2018-03-29T21:45:53.474Z,7.90
2018-03-29T21:48:21.800Z,7.91
2018-03-29T21:50:51.029Z,7.96
2018-03-29T21:53:19.591Z,7.99
2018-03-29T21:55:48.766Z,7.99
2018-03-29T21:58:17.081Z,8.01
2018-03-29T22:00:46.280Z,8.01
2018-03-29T22:03:14.615Z,7.98
2018-03-29T22:05:43.064Z,8.01
2018-03-29T22:08:11.362Z,8.08
2018-03-29T22:10:40.000Z,8.08
2018-03-29T22:13:08.339Z,8.11
2018-03-29T22:15:36.818Z,8.12
2018-03-29T22:18:05.132Z,8.13
2018-03-29T22:20:33.471Z,8.17
2018-03-29T22:23:01.823Z,8.18
2018-03-29T22:25:30.255Z,8.15
2018-03-29T22:27:58.619Z,8.11
2018-03-29T22:30:27.236Z,8.11
2018-03-29T22:32:55.564Z,8.11
2018-03-29T22:35:23.921Z,8.09
2018-03-29T22:37:52.247Z,8.10
2018-03-29T22:40:21.363Z,8.08
2018-03-29T22:42:49.689Z,8.07
2018-03-29T22:45:18.042Z,8.05
2018-03-29T22:47:46.816Z,8.09
2018-03-29T22:50:15.202Z,8.07
2018-03-29T22:52:43.523Z,8.07
2018-03-29T22:55:11.960Z,8.07
2018-03-29T22:57:40.312Z,8.05
2018-03-29T23:00:09.848Z,8.07
2018-03-29T23:02:38.406Z,8.03
2018-03-29T23:05:06.719Z,8.03
2018-03-29T23:07:35.066Z,7.99
2018-03-29T23:10:03.599Z,7.99
2018-03-29T23:12:32.108Z,8.00
2018-03-29T23:15:01.461Z,8.03
2018-03-29T23:17:29.863Z,7.98
2018-03-29T23:19:58.228Z,7.94
2018-03-29T23:22:26.583Z,7.89
2018-03-29T23:24:54.947Z,7.87
2018-03-29T23:27:23.342Z,7.86
2018-03-29T23:29:51.697Z,7.84
2018-03-29T23:32:20.100Z,7.77
2018-03-29T23:34:48.547Z,7.75
2018-03-29T23:37:16.882Z,7.75
2018-03-29T23:39:45.164Z,7.72
2018-03-29T23:42:13.537Z,7.72
2018-03-29T23:44:41.990Z,7.69
2018-03-29T23:47:10.427Z,7.62
2018-03-29T23:49:39.704Z,7.62
2018-03-29T23:52:08.141Z,7.64
2018-03-29T23:54:36.426Z,7.66
2018-03-29T23:57:07.752Z,7.68
2018-03-29T23:59:36.049Z,7.65
